createdAt,value
2019-03-22T00:02:20.603Z,99.90
2019-03-22T00:04:50.612Z,99.30
2019-03-22T00:07:20.670Z,99.90
2019-03-22T00:09:50.685Z,99.70
2019-03-22T00:12:20.758Z,99.90
2019-03-22T00:14:50.778Z,99.90
2019-03-22T00:17:20.818Z,99.90
2019-03-22T00:19:50.897Z,99.90
2019-03-22T00:22:20.961Z,96.70
2019-03-22T00:24:51.062Z,99.90
2019-03-22T00:27:21.110Z,99.90
2019-03-22T00:29:51.250Z,99.90
2019-03-22T00:32:21.325Z,99.80
2019-03-22T00:34:51.399Z,97.80
2019-03-22T00:37:21.441Z,99.90
2019-03-22T00:39:51.506Z,99.40
2019-03-22T00:42:21.531Z,99.90
2019-03-22T00:44:51.633Z,99.90
2019-03-22T00:47:21.702Z,99.90
2019-03-22T00:49:51.751Z,97.40
2019-03-22T00:52:21.816Z,99.90
2019-03-22T00:54:51.853Z,99.90
2019-03-22T00:57:28.347Z,99.90
2019-03-22T00:59:53.605Z,99.90
2019-03-22T01:02:23.629Z,99.90
2019-03-22T01:04:53.701Z,99.90
2019-03-22T01:07:23.741Z,99.90
2019-03-22T01:09:53.817Z,96.70
2019-03-22T01:12:23.866Z,99.90
2019-03-22T01:14:53.886Z,99.90
2019-03-22T01:17:23.950Z,99.90
2019-03-22T01:19:54.006Z,99.90
2019-03-22T01:22:24.081Z,98.80
2019-03-22T01:24:54.149Z,99.60
2019-03-22T01:27:24.225Z,99.90
2019-03-22T01:29:54.294Z,99.90
2019-03-22T01:32:24.819Z,99.90
2019-03-22T01:34:54.870Z,98.60
2019-03-22T01:37:24.871Z,99.90
2019-03-22T01:39:54.974Z,99.90
2019-03-22T01:42:24.999Z,99.90
2019-03-22T01:44:55.030Z,99.90
2019-03-22T01:47:25.079Z,99.90
2019-03-22T01:49:55.116Z,99.90
2019-03-22T01:52:25.181Z,99.90
2019-03-22T01:54:55.225Z,99.90
2019-03-22T01:57:25.259Z,99.90
2019-03-22T01:59:55.343Z,99.90
2019-03-22T02:02:25.403Z,99.90
2019-03-22T02:04:55.433Z,99.90
2019-03-22T02:07:25.488Z,99.90
2019-03-22T02:09:55.534Z,99.90
2019-03-22T02:12:25.561Z,99.90
2019-03-22T02:14:55.637Z,99.90
2019-03-22T02:17:25.679Z,99.90
2019-03-22T02:19:55.718Z,98.10
2019-03-22T02:22:25.759Z,98.90
2019-03-22T02:24:55.783Z,99.90
2019-03-22T02:27:25.802Z,98.50
2019-03-22T02:29:55.870Z,99.60
2019-03-22T02:32:25.946Z,99.90
2019-03-22T02:34:56.049Z,99.90
2019-03-22T02:37:26.085Z,99.90
2019-03-22T02:39:56.155Z,99.90
2019-03-22T02:42:26.217Z,99.90
2019-03-22T02:44:56.336Z,99.90
2019-03-22T02:47:26.405Z,99.90
2019-03-22T02:49:56.499Z,99.90
2019-03-22T02:52:26.528Z,99.90
2019-03-22T02:54:56.554Z,99.90
2019-03-22T02:57:26.618Z,99.90
2019-03-22T02:59:56.647Z,99.90
2019-03-22T03:02:26.687Z,99.90
2019-03-22T03:04:56.767Z,99.90
2019-03-22T03:07:26.829Z,99.90
2019-03-22T03:09:56.872Z,99.90
2019-03-22T03:12:26.936Z,99.90
2019-03-22T03:14:56.980Z,99.90
2019-03-22T03:17:27.121Z,99.90
2019-03-22T03:19:57.176Z,99.90
2019-03-22T03:22:27.282Z,99.90
2019-03-22T03:24:57.342Z,99.90
2019-03-22T03:27:27.489Z,99.90
2019-03-22T03:29:57.579Z,99.90
2019-03-22T03:32:27.706Z,98.20
2019-03-22T03:34:57.781Z,98.10
2019-03-22T03:37:27.886Z,98.20
2019-03-22T03:39:57.937Z,99.90
2019-03-22T03:42:28.017Z,99.90
2019-03-22T03:44:58.039Z,99.90
2019-03-22T03:47:28.105Z,99.80
2019-03-22T03:49:58.129Z,98.10
2019-03-22T03:52:28.169Z,97.80
2019-03-22T03:55:00.594Z,97.70
2019-03-22T03:57:30.635Z,99.30
2019-03-22T04:00:00.696Z,99.80
2019-03-22T04:02:30.732Z,99.50
2019-03-22T04:05:00.795Z,99.90
2019-03-22T04:07:30.872Z,99.90
2019-03-22T04:10:00.963Z,99.90
2019-03-22T04:12:31.021Z,99.90
2019-03-22T04:15:01.143Z,99.30
2019-03-22T04:17:31.198Z,99.90
2019-03-22T04:20:01.219Z,99.90
2019-03-22T04:22:31.286Z,99.00
2019-03-22T04:25:01.318Z,99.90
2019-03-22T04:27:31.385Z,99.90
2019-03-22T04:30:01.543Z,99.50
2019-03-22T04:32:31.635Z,99.20
2019-03-22T04:35:01.678Z,98.40
2019-03-22T04:37:31.749Z,99.90
2019-03-22T04:40:01.843Z,99.90
2019-03-22T04:42:31.865Z,99.90
2019-03-22T04:45:01.925Z,99.90
2019-03-22T04:47:32.025Z,99.90
2019-03-22T04:50:02.180Z,99.90
2019-03-22T04:52:32.229Z,99.90
2019-03-22T04:55:03.680Z,99.90
2019-03-22T04:57:35.620Z,99.90
2019-03-22T05:00:06.538Z,99.90
2019-03-22T05:02:37.533Z,99.90
2019-03-22T05:05:08.011Z,99.90
2019-03-22T05:07:38.268Z,99.90
2019-03-22T05:10:11.204Z,99.90
2019-03-22T05:12:44.677Z,99.90
2019-03-22T05:15:17.691Z,99.90
2019-03-22T05:17:48.169Z,99.90
2019-03-22T05:20:20.414Z,99.90
2019-03-22T05:22:51.566Z,99.90
2019-03-22T05:25:22.919Z,99.90
2019-03-22T05:27:53.657Z,99.90
2019-03-22T05:31:00.318Z,99.90
2019-03-22T05:33:30.465Z,99.90
2019-03-22T05:36:00.536Z,99.90
2019-03-22T05:38:30.639Z,99.90
2019-03-22T05:41:00.665Z,99.90
2019-03-22T05:43:30.833Z,99.90
2019-03-22T05:46:00.938Z,99.90
2019-03-22T05:48:31.006Z,99.90
2019-03-22T05:51:01.034Z,99.90
2019-03-22T05:53:31.122Z,99.90
2019-03-22T05:56:01.218Z,99.90
2019-03-22T05:58:31.259Z,99.90
2019-03-22T06:01:01.331Z,99.90
2019-03-22T06:03:31.347Z,99.90
2019-03-22T06:06:01.386Z,99.90
2019-03-22T06:08:31.437Z,99.90
2019-03-22T06:11:01.439Z,99.90
2019-03-22T06:13:31.461Z,99.90
2019-03-22T06:16:01.506Z,99.90
2019-03-22T06:18:31.530Z,99.90
2019-03-22T06:21:01.608Z,99.90
2019-03-22T06:23:31.623Z,99.90
2019-03-22T06:26:01.665Z,99.90
2019-03-22T06:28:31.678Z,99.90
2019-03-22T06:31:01.735Z,99.90
2019-03-22T06:33:31.817Z,99.90
2019-03-22T06:36:01.861Z,99.90
2019-03-22T06:38:31.910Z,99.90
2019-03-22T06:41:01.923Z,99.90
2019-03-22T06:43:31.964Z,99.90
2019-03-22T06:46:02.014Z,99.90
2019-03-22T06:48:32.067Z,99.90
2019-03-22T06:51:02.106Z,99.90
2019-03-22T06:53:32.161Z,99.90
2019-03-22T06:56:02.235Z,99.90
2019-03-22T06:58:32.370Z,99.90
2019-03-22T07:01:02.417Z,99.90
2019-03-22T07:03:32.457Z,99.90
2019-03-22T07:06:02.550Z,99.90
2019-03-22T07:08:32.598Z,99.90
2019-03-22T07:11:02.641Z,99.90
2019-03-22T07:13:32.678Z,99.90
2019-03-22T07:16:02.781Z,99.90
2019-03-22T07:18:33.074Z,99.90
2019-03-22T07:21:03.115Z,99.90
2019-03-22T07:23:33.198Z,99.90
2019-03-22T07:26:03.200Z,99.90
2019-03-22T07:28:33.278Z,99.90
2019-03-22T07:31:03.337Z,99.90
2019-03-22T07:33:33.432Z,99.90
2019-03-22T07:36:03.565Z,99.90
2019-03-22T07:38:33.643Z,99.90
2019-03-22T07:41:03.740Z,99.90
2019-03-22T07:43:33.833Z,99.90
2019-03-22T07:46:03.962Z,99.90
2019-03-22T07:48:34.013Z,99.90
2019-03-22T07:51:04.098Z,99.90
2019-03-22T07:53:34.159Z,99.90
2019-03-22T07:56:04.237Z,99.90
2019-03-22T07:58:34.268Z,99.90
2019-03-22T08:01:04.507Z,99.90
2019-03-22T08:03:34.523Z,99.90
2019-03-22T08:06:04.612Z,99.90
2019-03-22T08:08:34.666Z,99.90
2019-03-22T08:11:04.701Z,99.90
2019-03-22T08:13:34.749Z,99.90
2019-03-22T08:16:04.795Z,99.90
2019-03-22T08:18:34.861Z,99.90
2019-03-22T08:21:04.929Z,99.90
2019-03-22T08:23:35.056Z,99.90
2019-03-22T08:26:05.096Z,99.90
2019-03-22T08:28:35.133Z,99.90
2019-03-22T08:31:05.700Z,99.90
2019-03-22T08:33:35.937Z,99.90
2019-03-22T08:36:05.974Z,99.90
2019-03-22T08:38:36.011Z,99.90
2019-03-22T08:41:06.043Z,99.90
2019-03-22T08:43:36.107Z,99.90
2019-03-22T08:46:06.177Z,99.90
2019-03-22T08:48:36.181Z,99.90
2019-03-22T08:51:06.300Z,99.90
2019-03-22T08:53:36.301Z,99.90
2019-03-22T08:56:07.674Z,99.90
2019-03-22T08:58:37.807Z,99.90
2019-03-22T09:01:08.152Z,99.90
2019-03-22T09:03:38.265Z,99.90
2019-03-22T09:06:08.456Z,99.90
2019-03-22T09:08:39.017Z,99.90
2019-03-22T09:11:09.207Z,99.90
2019-03-22T09:13:39.362Z,99.90
2019-03-22T09:16:09.518Z,99.90
2019-03-22T09:18:39.710Z,99.90
2019-03-22T09:21:09.839Z,99.90
2019-03-22T09:23:40.020Z,99.90
2019-03-22T09:26:10.221Z,99.90
2019-03-22T09:28:40.320Z,99.90
2019-03-22T09:31:11.181Z,99.90
2019-03-22T09:33:41.721Z,99.90
2019-03-22T09:36:11.919Z,99.90
2019-03-22T09:38:41.955Z,99.90
2019-03-22T09:41:12.022Z,99.90
2019-03-22T09:43:42.063Z,99.90
2019-03-22T09:46:12.160Z,99.90
2019-03-22T09:48:42.219Z,99.90
2019-03-22T09:51:12.516Z,99.90
2019-03-22T09:53:42.735Z,99.90
2019-03-22T09:56:12.759Z,99.90
2019-03-22T09:58:42.834Z,99.60
2019-03-22T10:01:23.234Z,99.20
2019-03-22T10:03:44.691Z,98.70
2019-03-22T10:06:14.725Z,98.50
2019-03-22T10:08:44.771Z,99.00
2019-03-22T10:11:14.782Z,98.30
2019-03-22T10:13:44.869Z,98.40
2019-03-22T10:16:15.080Z,97.70
2019-03-22T10:18:45.337Z,96.80
2019-03-22T10:21:22.201Z,97.10
2019-03-22T10:23:47.193Z,97.70
2019-03-22T10:26:17.242Z,97.70
2019-03-22T10:28:47.454Z,97.50
2019-03-22T10:31:17.514Z,96.60
2019-03-22T10:33:47.553Z,97.00
2019-03-22T10:36:17.759Z,97.10
2019-03-22T10:38:50.325Z,97.20
2019-03-22T10:41:19.642Z,97.70
2019-03-22T10:43:49.640Z,98.10
2019-03-22T10:46:19.765Z,98.20
2019-03-22T10:48:49.857Z,97.20
2019-03-22T10:51:21.506Z,97.00
2019-03-22T10:53:51.711Z,96.60
2019-03-22T10:56:24.715Z,95.90
2019-03-22T10:58:53.455Z,98.50
2019-03-22T11:01:23.507Z,95.00
2019-03-22T11:03:53.715Z,96.70
2019-03-22T11:06:26.327Z,98.00
2019-03-22T11:08:55.627Z,98.20
2019-03-22T11:11:25.791Z,97.80
2019-03-22T11:13:55.853Z,96.80
2019-03-22T11:16:25.982Z,96.60
2019-03-22T11:18:56.007Z,96.60
2019-03-22T11:21:26.125Z,95.80
2019-03-22T11:23:56.138Z,96.10
2019-03-22T11:26:26.234Z,95.30
2019-03-22T11:28:57.898Z,95.50
2019-03-22T11:31:29.908Z,96.50
2019-03-22T11:33:59.955Z,95.20
2019-03-22T11:36:30.043Z,94.80
2019-03-22T11:39:00.195Z,94.50
2019-03-22T11:41:30.434Z,95.50
2019-03-22T11:44:00.614Z,95.20
2019-03-22T11:46:31.143Z,96.00
2019-03-22T11:49:01.377Z,94.70
2019-03-22T11:51:31.618Z,94.90
2019-03-22T11:54:01.627Z,95.20
2019-03-22T11:56:31.722Z,95.40
2019-03-22T11:59:01.751Z,96.10
2019-03-22T12:01:31.799Z,95.90
2019-03-22T12:04:01.915Z,95.60
2019-03-22T12:06:31.958Z,97.30
2019-03-22T12:09:02.057Z,95.50
2019-03-22T12:11:32.090Z,95.50
2019-03-22T12:14:02.097Z,95.80
2019-03-22T12:16:32.162Z,95.50
2019-03-22T12:19:02.354Z,96.10
2019-03-22T12:21:32.448Z,96.10
2019-03-22T12:24:02.503Z,95.20
2019-03-22T12:26:32.551Z,96.50
2019-03-22T12:29:02.656Z,96.10
2019-03-22T12:31:32.735Z,94.90
2019-03-22T12:34:04.232Z,95.30
2019-03-22T12:36:34.478Z,95.50
2019-03-22T12:39:06.275Z,95.20
2019-03-22T12:41:36.335Z,95.20
2019-03-22T12:44:06.393Z,93.30
2019-03-22T12:46:36.493Z,93.70
2019-03-22T12:49:06.626Z,96.70
2019-03-22T12:51:36.743Z,94.70
2019-03-22T12:54:06.781Z,95.90
2019-03-22T12:56:36.941Z,94.40
2019-03-22T12:59:07.001Z,94.70
2019-03-22T13:01:37.078Z,93.70
2019-03-22T13:04:07.183Z,94.70
2019-03-22T13:06:37.254Z,96.00
2019-03-22T13:09:09.665Z,92.10
2019-03-22T13:11:39.682Z,93.10
2019-03-22T13:14:09.745Z,93.50
2019-03-22T13:16:39.808Z,93.40
2019-03-22T13:19:09.844Z,93.70
2019-03-22T13:21:39.917Z,95.00
2019-03-22T13:24:10.003Z,92.80
2019-03-22T13:26:40.081Z,93.60
2019-03-22T13:29:10.156Z,94.50
2019-03-22T13:31:40.226Z,93.60
2019-03-22T13:34:10.268Z,94.10
2019-03-22T13:36:40.380Z,93.50
2019-03-22T13:39:10.470Z,93.50
2019-03-22T13:41:40.637Z,93.00
2019-03-22T13:44:10.683Z,93.50
2019-03-22T13:46:40.876Z,94.50
2019-03-22T13:49:10.888Z,92.50
2019-03-22T13:51:40.998Z,93.60
2019-03-22T13:54:11.078Z,94.10
2019-03-22T13:56:41.174Z,93.70
2019-03-22T13:59:11.192Z,93.50
2019-03-22T14:01:41.301Z,94.40
2019-03-22T14:04:11.338Z,93.60
2019-03-22T14:06:41.380Z,92.70
2019-03-22T14:09:11.462Z,92.40
2019-03-22T14:11:41.558Z,92.50
2019-03-22T14:14:11.616Z,93.30
2019-03-22T14:16:41.670Z,93.10
2019-03-22T14:19:11.754Z,94.00
2019-03-22T14:21:41.810Z,92.60
2019-03-22T14:24:11.844Z,93.40
2019-03-22T14:26:41.865Z,92.40
2019-03-22T14:29:11.926Z,92.70
2019-03-22T14:31:42.001Z,92.30
2019-03-22T14:34:12.086Z,93.50
2019-03-22T14:36:42.133Z,90.90
2019-03-22T14:39:12.214Z,91.30
2019-03-22T14:41:42.262Z,93.20
2019-03-22T14:44:12.331Z,92.50
2019-03-22T14:46:42.471Z,92.20
2019-03-22T14:49:12.519Z,91.90
2019-03-22T14:51:42.577Z,92.10
2019-03-22T14:54:12.645Z,92.10
2019-03-22T14:56:42.710Z,92.30
2019-03-22T14:59:12.751Z,92.10
2019-03-22T15:01:42.790Z,92.20
2019-03-22T15:04:12.847Z,92.50
2019-03-22T15:06:42.864Z,91.40
2019-03-22T15:09:13.062Z,92.00
2019-03-22T15:11:43.061Z,92.20
2019-03-22T15:14:33.174Z,92.20
2019-03-22T15:17:21.585Z,92.40
2019-03-22T15:20:13.354Z,92.40
2019-03-22T15:23:01.018Z,91.70
2019-03-22T15:26:08.336Z,93.60
2019-03-22T15:28:57.364Z,91.40
2019-03-22T15:31:44.625Z,91.60
2019-03-22T15:34:33.603Z,92.10
2019-03-22T15:37:22.657Z,92.60
2019-03-22T15:40:00.350Z,91.80
2019-03-22T15:42:30.699Z,92.30
2019-03-22T15:45:00.924Z,92.40
2019-03-22T15:47:30.899Z,92.40
2019-03-22T15:50:00.958Z,92.40
2019-03-22T15:52:31.015Z,94.00
2019-03-22T15:55:01.086Z,92.20
2019-03-22T15:57:31.142Z,92.00
2019-03-22T16:00:01.125Z,92.50
2019-03-22T16:02:31.236Z,92.40
2019-03-22T16:05:01.353Z,92.80
2019-03-22T16:07:31.401Z,92.90
2019-03-22T16:10:01.465Z,92.80
2019-03-22T16:12:31.615Z,92.90
2019-03-22T16:15:01.640Z,92.60
2019-03-22T16:17:33.058Z,93.00
2019-03-22T16:20:03.126Z,93.00
2019-03-22T16:22:33.169Z,93.00
2019-03-22T16:25:03.233Z,93.10
2019-03-22T16:27:33.245Z,92.90
2019-03-22T16:30:03.343Z,93.50
2019-03-22T16:32:33.363Z,93.40
2019-03-22T16:35:03.424Z,93.50
2019-03-22T16:37:33.463Z,93.60
2019-03-22T16:40:04.710Z,93.70
2019-03-22T16:42:34.930Z,94.50
2019-03-22T16:45:06.200Z,94.00
2019-03-22T16:47:36.580Z,94.40
2019-03-22T16:50:16.429Z,94.90
2019-03-22T16:52:46.469Z,94.50
2019-03-22T16:55:16.507Z,94.80
2019-03-22T16:57:46.547Z,94.80
2019-03-22T17:00:17.047Z,94.80
2019-03-22T17:02:47.119Z,95.00
2019-03-22T17:05:17.232Z,95.10
2019-03-22T17:07:47.281Z,95.20
2019-03-22T17:10:17.354Z,95.30
2019-03-22T17:12:47.458Z,95.20
2019-03-22T17:15:17.515Z,95.40
2019-03-22T17:17:47.598Z,95.10
2019-03-22T17:20:17.731Z,95.40
2019-03-22T17:22:47.803Z,95.60
2019-03-22T17:25:17.879Z,95.80
2019-03-22T17:27:47.954Z,96.00
2019-03-22T17:30:18.214Z,95.90
2019-03-22T17:32:48.228Z,95.90
2019-03-22T17:35:18.292Z,95.90
2019-03-22T17:37:48.314Z,96.40
2019-03-22T17:40:18.538Z,96.50
2019-03-22T17:42:48.614Z,96.60
2019-03-22T17:45:19.411Z,97.10
2019-03-22T17:47:49.432Z,97.40
2019-03-22T17:50:19.638Z,97.70
2019-03-22T17:52:49.738Z,97.90
2019-03-22T17:55:19.848Z,98.10
2019-03-22T17:57:49.899Z,98.10
2019-03-22T18:00:22.438Z,98.20
2019-03-22T18:02:52.487Z,98.40
2019-03-22T18:05:22.547Z,97.80
2019-03-22T18:07:52.624Z,98.40
2019-03-22T18:10:22.670Z,98.00
2019-03-22T18:12:52.822Z,97.80
2019-03-22T18:15:22.851Z,98.30
2019-03-22T18:17:52.983Z,98.50
2019-03-22T18:20:23.014Z,98.60
2019-03-22T18:22:53.140Z,99.00
2019-03-22T18:25:23.192Z,99.00
2019-03-22T18:27:53.272Z,99.10
2019-03-22T18:30:23.349Z,98.90
2019-03-22T18:32:53.627Z,99.20
2019-03-22T18:35:23.734Z,98.90
2019-03-22T18:37:53.831Z,98.20
2019-03-22T18:40:23.867Z,98.20
2019-03-22T18:42:53.935Z,97.90
2019-03-22T18:45:24.066Z,98.80
2019-03-22T18:47:54.130Z,98.90
2019-03-22T18:50:24.254Z,98.70
2019-03-22T18:52:54.347Z,99.10
2019-03-22T18:55:24.440Z,99.30
2019-03-22T18:57:54.494Z,99.40
2019-03-22T19:00:24.559Z,99.30
2019-03-22T19:02:54.570Z,99.80
2019-03-22T19:05:24.625Z,99.70
2019-03-22T19:07:54.702Z,99.90
2019-03-22T19:10:24.739Z,99.90
2019-03-22T19:12:54.815Z,99.90
2019-03-22T19:15:24.886Z,99.90
2019-03-22T19:17:54.964Z,99.90
2019-03-22T19:20:25.006Z,99.90
2019-03-22T19:22:55.451Z,99.90
2019-03-22T19:25:25.523Z,99.90
2019-03-22T19:27:55.605Z,99.90
2019-03-22T19:30:25.687Z,99.90
2019-03-22T19:32:55.761Z,99.90
2019-03-22T19:35:25.852Z,99.90
2019-03-22T19:37:55.945Z,99.90
2019-03-22T19:40:26.081Z,99.90
2019-03-22T19:42:56.217Z,99.90
2019-03-22T19:45:26.312Z,99.90
2019-03-22T19:47:56.416Z,99.90
2019-03-22T19:50:27.980Z,99.90
2019-03-22T19:52:58.078Z,99.90
2019-03-22T19:55:28.183Z,99.90
2019-03-22T19:57:58.242Z,99.90
2019-03-22T20:00:28.302Z,99.90
2019-03-22T20:02:58.358Z,99.90
2019-03-22T20:05:32.475Z,99.30
2019-03-22T20:08:02.659Z,97.90
2019-03-22T20:10:32.722Z,97.30
2019-03-22T20:13:02.830Z,98.70
2019-03-22T20:15:32.913Z,99.00
2019-03-22T20:18:02.988Z,99.80
2019-03-22T20:20:36.096Z,99.90
2019-03-22T20:23:05.661Z,99.90
2019-03-22T20:25:35.758Z,97.80
2019-03-22T20:28:07.856Z,97.70
2019-03-22T20:30:37.908Z,96.80
2019-03-22T20:33:08.129Z,97.20
2019-03-22T20:35:38.228Z,96.60
2019-03-22T20:38:08.383Z,99.10
2019-03-22T20:40:38.448Z,99.90
2019-03-22T20:43:08.525Z,99.90
2019-03-22T20:45:38.722Z,99.90
2019-03-22T20:48:08.769Z,99.90
2019-03-22T20:50:38.845Z,99.90
2019-03-22T20:53:08.914Z,99.90
2019-03-22T20:55:39.001Z,99.90
2019-03-22T20:58:09.087Z,99.90
2019-03-22T21:00:39.174Z,99.90
2019-03-22T21:03:09.248Z,99.70
2019-03-22T21:05:39.289Z,99.00
2019-03-22T21:08:09.390Z,97.80
2019-03-22T21:10:39.419Z,99.40
2019-03-22T21:13:09.609Z,98.90
2019-03-22T21:15:39.747Z,99.80
2019-03-22T21:18:09.978Z,99.90
2019-03-22T21:20:40.121Z,99.90
2019-03-22T21:23:10.244Z,99.90
2019-03-22T21:25:40.332Z,99.90
2019-03-22T21:28:10.359Z,99.90
2019-03-22T21:30:40.433Z,99.60
2019-03-22T21:33:10.615Z,99.90
2019-03-22T21:35:40.804Z,99.90
2019-03-22T21:38:11.426Z,99.90
2019-03-22T21:40:41.639Z,99.90
2019-03-22T21:43:11.718Z,99.30
2019-03-22T21:45:42.907Z,99.80
2019-03-22T21:48:13.030Z,99.90
2019-03-22T21:50:43.115Z,98.30
2019-03-22T21:53:13.186Z,99.90
2019-03-22T21:55:43.349Z,99.90
2019-03-22T21:58:13.425Z,99.90
2019-03-22T22:00:43.570Z,99.90
2019-03-22T22:03:13.649Z,99.90
2019-03-22T22:05:47.688Z,99.90
2019-03-22T22:08:15.562Z,99.90
2019-03-22T22:10:45.678Z,99.90
2019-03-22T22:13:15.810Z,99.90
2019-03-22T22:15:45.955Z,99.90
2019-03-22T22:18:16.047Z,99.90
2019-03-22T22:20:46.196Z,99.90
2019-03-22T22:23:16.349Z,99.90
2019-03-22T22:25:46.401Z,98.10
2019-03-22T22:28:16.497Z,99.90
2019-03-22T22:30:46.528Z,99.90
2019-03-22T22:33:16.634Z,99.90
2019-03-22T22:35:47.075Z,99.90
2019-03-22T22:38:17.092Z,99.90
2019-03-22T22:40:47.232Z,99.50
2019-03-22T22:43:17.261Z,99.90
2019-03-22T22:45:47.381Z,99.90
2019-03-22T22:48:17.477Z,99.70
2019-03-22T22:50:47.570Z,99.90
2019-03-22T22:53:17.657Z,99.00
2019-03-22T22:55:47.715Z,99.90
2019-03-22T22:58:17.845Z,99.90
2019-03-22T23:00:48.488Z,99.90
2019-03-22T23:03:18.534Z,99.90
2019-03-22T23:05:48.628Z,99.00
2019-03-22T23:08:18.722Z,99.90
2019-03-22T23:10:48.770Z,99.90
2019-03-22T23:13:18.872Z,99.90
2019-03-22T23:15:48.938Z,99.90
2019-03-22T23:18:18.971Z,99.90
2019-03-22T23:20:49.019Z,99.90
2019-03-22T23:23:19.067Z,99.90
2019-03-22T23:25:49.124Z,99.90
2019-03-22T23:28:19.178Z,99.90
2019-03-22T23:30:49.252Z,99.90
2019-03-22T23:33:19.331Z,99.90
2019-03-22T23:35:49.360Z,99.90
2019-03-22T23:38:19.466Z,99.90
2019-03-22T23:40:49.565Z,99.90
2019-03-22T23:43:19.681Z,99.90
2019-03-22T23:45:49.761Z,99.90
2019-03-22T23:48:19.804Z,99.90
2019-03-22T23:50:50.049Z,99.90
2019-03-22T23:53:20.243Z,99.90
2019-03-22T23:55:50.294Z,99.90
2019-03-22T23:58:20.353Z,99.90
